Terminal Aerodrome Forecast
Issued by NWS

Home | Current Version | Previous Version | Text Only | Print | Product List | Glossary On
Versions: 1 2 3 4 5 6 7 8 9 10 11 12 13 14 15 16
000
FTUS46 KSGX 020524
TAFONT
TAF
KONT 020524Z 0206/0312 VRB06KT P6SM SCT200 BKN250
     FM021200 VRB03KT 4SM BR SCT008
      TEMPO 0213/0215 BKN007
     FM021800 VRB06KT P6SM SCT250
     FM022000 26012G20KT P6SM SCT250
     FM030300 26009KT P6SM SCT250
     FM030600 VRB05KT P6SM SCT250=

USA.gov is the U.S. government's official web portal to all federal, state and local government web resources and services.